createdAt,value
2023-05-06T00:00:53.231Z,13.55
2023-05-06T00:03:25.418Z,11.13
2023-05-06T00:05:55.281Z,11.10
2023-05-06T00:08:24.732Z,10.02
2023-05-06T00:10:54.216Z,10.15
2023-05-06T00:13:23.680Z,11.13
2023-05-06T00:15:53.149Z,10.32
2023-05-06T00:18:25.287Z,11.48
2023-05-06T00:20:54.703Z,11.07
2023-05-06T00:23:24.099Z,9.63
2023-05-06T00:25:53.570Z,10.02
2023-05-06T00:28:23.042Z,11.50
2023-05-06T00:30:52.518Z,11.32
2023-05-06T00:33:21.977Z,12.25
2023-05-06T00:35:55.034Z,11.45
2023-05-06T00:38:25.111Z,12.35
2023-05-06T00:40:54.685Z,11.75
2023-05-06T00:43:24.163Z,11.80
2023-05-06T00:45:54.192Z,11.55
2023-05-06T00:48:23.675Z,12.07
2023-05-06T00:50:55.797Z,11.90
2023-05-06T00:53:25.438Z,12.50
2023-05-06T00:55:54.967Z,11.55
2023-05-06T00:58:24.483Z,10.80
2023-05-06T01:00:55.459Z,11.27
2023-05-06T01:03:26.099Z,10.73
2023-05-06T01:06:06.989Z,11.73
2023-05-06T01:08:40.084Z,10.82
2023-05-06T01:11:16.106Z,12.70
2023-05-06T01:13:51.389Z,11.05
2023-05-06T01:16:26.987Z,11.50
2023-05-06T01:18:57.719Z,12.82
2023-05-06T01:21:34.991Z,10.60
2023-05-06T01:24:07.591Z,11.07
2023-05-06T01:26:37.033Z,11.73
2023-05-06T01:29:06.582Z,10.33
2023-05-06T01:31:43.008Z,11.43
2023-05-06T01:34:18.103Z,10.80
2023-05-06T01:36:57.751Z,9.65
2023-05-06T01:39:33.593Z,9.37
2023-05-06T01:42:05.374Z,10.43
2023-05-06T01:44:36.846Z,9.77
2023-05-06T01:47:08.123Z,9.60
2023-05-06T01:49:38.085Z,9.05
2023-05-06T01:52:07.641Z,9.73
2023-05-06T01:54:39.688Z,9.63
2023-05-06T01:57:09.139Z,10.70
2023-05-06T01:59:38.588Z,9.10
2023-05-06T02:02:08.337Z,9.30
2023-05-06T02:04:38.013Z,9.10
2023-05-06T02:07:08.137Z,9.57
2023-05-06T02:09:40.154Z,9.47
2023-05-06T02:12:09.774Z,8.90
2023-05-06T02:14:39.224Z,9.43
2023-05-06T02:17:09.008Z,8.53
2023-05-06T02:19:38.477Z,8.60
2023-05-06T02:22:07.961Z,8.40
2023-05-06T02:24:39.987Z,8.40
2023-05-06T02:27:09.458Z,6.78
2023-05-06T02:29:38.923Z,7.77
2023-05-06T02:32:08.367Z,6.40
2023-05-06T02:34:37.807Z,6.87
2023-05-06T02:37:07.301Z,6.63
2023-05-06T02:39:36.776Z,6.80
2023-05-06T02:42:08.805Z,5.93
2023-05-06T02:44:38.237Z,6.03
2023-05-06T02:47:07.830Z,5.10
2023-05-06T02:49:37.342Z,5.80
2023-05-06T02:52:07.272Z,6.00
2023-05-06T02:54:36.879Z,6.20
2023-05-06T02:57:08.880Z,5.80
2023-05-06T02:59:38.712Z,5.20
2023-05-06T03:02:08.155Z,5.93
2023-05-06T03:04:37.736Z,5.65
2023-05-06T03:07:07.223Z,5.68
2023-05-06T03:09:36.815Z,5.90
2023-05-06T03:12:09.357Z,6.88
2023-05-06T03:17:08.398Z,6.97
2023-05-06T03:19:39.737Z,6.30
2023-05-06T03:22:11.001Z,7.07
2023-05-06T03:24:44.408Z,7.37
2023-05-06T03:27:16.611Z,7.07
2023-05-06T03:29:48.343Z,6.97
2023-05-06T03:32:19.025Z,7.57
2023-05-06T03:34:48.693Z,8.07
2023-05-06T03:37:21.974Z,7.20
2023-05-06T03:39:55.805Z,8.07
2023-05-06T03:42:31.600Z,8.13
2023-05-06T03:45:01.556Z,7.82
2023-05-06T03:47:34.176Z,7.93
2023-05-06T03:50:05.698Z,7.22
2023-05-06T03:52:36.964Z,8.10
2023-05-06T03:55:08.529Z,8.23
2023-05-06T03:57:42.099Z,7.97
2023-05-06T04:00:13.437Z,8.00
2023-05-06T04:02:53.366Z,8.23
2023-05-06T04:05:29.199Z,8.07
2023-05-06T04:07:58.776Z,7.70
2023-05-06T04:10:28.498Z,8.67
2023-05-06T04:13:06.457Z,8.43
2023-05-06T04:15:41.907Z,7.70
2023-05-06T04:18:19.174Z,8.55
2023-05-06T04:20:56.702Z,7.53
2023-05-06T04:23:27.062Z,8.30
2023-05-06T04:25:59.440Z,7.90
2023-05-06T04:28:33.059Z,7.93
2023-05-06T04:31:02.616Z,7.90
2023-05-06T04:33:41.432Z,8.57
2023-05-06T04:36:14.569Z,7.47
2023-05-06T04:38:52.880Z,7.63
2023-05-06T04:41:23.804Z,7.97
2023-05-06T04:43:56.236Z,7.70
2023-05-06T04:46:27.277Z,8.40
2023-05-06T04:48:58.371Z,7.68
2023-05-06T04:51:28.072Z,7.70
2023-05-06T04:53:57.864Z,8.47
2023-05-06T04:56:27.333Z,7.70
2023-05-06T04:58:59.458Z,9.10
2023-05-06T05:01:29.916Z,8.07
2023-05-06T05:03:59.417Z,8.60
2023-05-06T05:06:28.896Z,8.50
2023-05-06T05:08:59.490Z,8.17
2023-05-06T05:11:29.644Z,8.23
2023-05-06T05:14:03.791Z,7.67
2023-05-06T05:19:07.459Z,8.23
2023-05-06T05:21:38.565Z,8.30
2023-05-06T05:24:09.586Z,8.07
2023-05-06T05:26:39.100Z,7.77
2023-05-06T05:29:11.323Z,7.97
2023-05-06T05:31:41.166Z,7.80
2023-05-06T05:34:11.185Z,8.60
2023-05-06T05:36:40.866Z,8.63
2023-05-06T05:41:47.146Z,8.83
2023-05-06T05:44:19.681Z,9.27
2023-05-06T05:46:49.684Z,8.57
2023-05-06T05:49:21.854Z,8.15
2023-05-06T05:51:53.743Z,9.00
2023-05-06T05:54:24.555Z,9.53
2023-05-06T05:56:54.067Z,9.27
2023-05-06T05:59:27.237Z,8.97
2023-05-06T06:01:58.333Z,9.30
2023-05-06T06:04:28.169Z,10.07
2023-05-06T06:06:58.772Z,9.00
2023-05-06T06:09:28.388Z,8.97
2023-05-06T06:11:58.462Z,9.23
2023-05-06T06:14:30.957Z,9.75
2023-05-06T06:17:00.952Z,9.45
2023-05-06T06:19:30.591Z,10.73
2023-05-06T06:22:00.290Z,9.65
2023-05-06T06:24:30.395Z,9.37
2023-05-06T06:26:59.865Z,9.40
2023-05-06T06:29:32.376Z,9.73
2023-05-06T06:32:02.247Z,9.15
2023-05-06T06:34:31.790Z,11.20
2023-05-06T06:37:01.967Z,9.65
2023-05-06T06:39:31.533Z,8.90
2023-05-06T06:42:04.366Z,8.90
2023-05-06T06:44:42.737Z,10.18
2023-05-06T06:47:12.212Z,9.68
2023-05-06T06:49:41.859Z,10.82
2023-05-06T06:52:11.379Z,9.95
2023-05-06T06:54:41.335Z,10.02
2023-05-06T06:57:10.937Z,10.88
2023-05-06T06:59:42.982Z,9.35
2023-05-06T07:02:12.480Z,9.43
2023-05-06T07:04:42.159Z,9.98
2023-05-06T07:07:11.749Z,9.45
2023-05-06T07:09:41.770Z,9.32
2023-05-06T07:12:11.300Z,9.48
2023-05-06T07:14:43.377Z,9.68
2023-05-06T07:17:13.053Z,9.20
2023-05-06T07:19:42.625Z,9.32
2023-05-06T07:22:12.118Z,9.57
2023-05-06T07:24:41.642Z,10.48
2023-05-06T07:27:11.129Z,9.50
2023-05-06T07:29:43.182Z,10.02
2023-05-06T07:32:12.634Z,9.93
2023-05-06T07:34:42.244Z,9.98
2023-05-06T07:37:11.709Z,9.48
2023-05-06T07:39:41.214Z,9.02
2023-05-06T07:42:13.224Z,8.27
2023-05-06T07:44:45.361Z,9.40
2023-05-06T07:47:14.841Z,8.25
2023-05-06T07:49:44.434Z,8.57
2023-05-06T07:52:13.881Z,8.35
2023-05-06T07:54:43.349Z,7.70
2023-05-06T07:57:13.014Z,8.85
2023-05-06T07:59:45.080Z,7.28
2023-05-06T08:02:15.338Z,5.88
2023-05-06T08:04:45.339Z,7.18
2023-05-06T08:07:14.987Z,7.15
2023-05-06T08:09:44.498Z,6.55
2023-05-06T08:12:15.907Z,6.90
2023-05-06T08:14:48.268Z,7.82
2023-05-06T08:17:17.942Z,7.53
2023-05-06T08:19:47.437Z,7.22
2023-05-06T08:22:17.689Z,7.80
2023-05-06T08:24:47.829Z,7.80
2023-05-06T08:27:17.278Z,6.88
2023-05-06T08:29:49.442Z,8.35
2023-05-06T08:32:18.960Z,8.75
2023-05-06T08:34:48.424Z,8.90
2023-05-06T08:37:18.080Z,8.25
2023-05-06T08:39:47.825Z,9.10
2023-05-06T08:42:17.370Z,10.30
2023-05-06T08:44:50.068Z,9.55
2023-05-06T08:47:19.617Z,9.75
2023-05-06T08:49:49.276Z,10.63
2023-05-06T08:52:20.057Z,11.60
2023-05-06T08:54:51.521Z,10.93
2023-05-06T08:57:21.289Z,9.90
2023-05-06T08:59:53.446Z,9.00
2023-05-06T09:02:24.008Z,8.55
2023-05-06T09:04:55.775Z,6.88
2023-05-06T09:07:26.286Z,8.00
2023-05-06T09:09:55.789Z,8.00
2023-05-06T09:12:26.945Z,7.53
2023-05-06T09:14:59.000Z,6.93
2023-05-06T09:17:28.658Z,7.80
2023-05-06T09:19:59.684Z,7.30
2023-05-06T09:22:31.279Z,8.77
2023-05-06T09:25:01.850Z,10.07
2023-05-06T09:27:33.969Z,8.93
2023-05-06T09:30:08.263Z,10.00
2023-05-06T09:32:40.263Z,10.35
2023-05-06T09:35:12.102Z,8.45
2023-05-06T09:37:42.309Z,7.68
2023-05-06T09:40:12.614Z,7.50
2023-05-06T09:42:42.017Z,8.27
2023-05-06T09:45:18.642Z,7.78
2023-05-06T09:47:49.729Z,7.65
2023-05-06T09:50:19.411Z,8.95
2023-05-06T09:52:49.154Z,8.93
2023-05-06T09:55:21.379Z,10.90
2023-05-06T09:57:52.142Z,9.23
2023-05-06T10:00:28.302Z,10.00
2023-05-06T10:02:58.603Z,9.25
2023-05-06T10:05:30.046Z,9.35
2023-05-06T10:08:00.044Z,10.55
2023-05-06T10:10:32.858Z,9.25
2023-05-06T10:13:04.905Z,10.13
2023-05-06T10:15:37.732Z,9.50
2023-05-06T10:18:09.886Z,10.80
2023-05-06T10:20:43.762Z,11.10
2023-05-06T10:23:22.023Z,11.32
2023-05-06T10:25:56.103Z,12.45
2023-05-06T10:28:30.468Z,10.80
2023-05-06T10:31:06.350Z,11.05
2023-05-06T10:33:36.598Z,12.13
2023-05-06T10:36:16.791Z,12.30
2023-05-06T10:38:49.406Z,11.77
2023-05-06T10:43:56.947Z,10.13
2023-05-06T10:46:30.898Z,10.07
2023-05-06T10:49:20.737Z,10.05
2023-05-06T10:54:51.228Z,11.98
2023-05-06T10:57:22.718Z,11.00
2023-05-06T10:59:54.605Z,9.07
2023-05-06T11:02:26.955Z,9.93
2023-05-06T11:05:03.620Z,8.60
2023-05-06T11:07:33.141Z,7.65
2023-05-06T11:10:05.378Z,8.60
2023-05-06T11:12:49.391Z,7.68
2023-05-06T11:15:24.121Z,8.90
2023-05-06T11:17:57.498Z,8.68
2023-05-06T11:20:28.110Z,7.65
2023-05-06T11:22:57.590Z,9.32
2023-05-06T11:25:43.855Z,9.07
2023-05-06T11:28:14.303Z,8.80
2023-05-06T11:30:46.180Z,8.98
2023-05-06T11:33:21.637Z,8.38
2023-05-06T11:35:51.152Z,9.95
2023-05-06T11:38:20.596Z,9.18
2023-05-06T11:40:51.975Z,9.10
2023-05-06T11:43:21.412Z,9.40
2023-05-06T11:45:51.636Z,8.82
2023-05-06T11:48:23.704Z,8.07
2023-05-06T11:50:53.602Z,8.25
2023-05-06T11:53:25.190Z,9.43
2023-05-06T11:55:56.389Z,9.38
2023-05-06T11:58:28.208Z,7.97
2023-05-06T12:00:59.047Z,9.30
2023-05-06T12:03:32.696Z,9.68
2023-05-06T12:06:02.903Z,9.90
2023-05-06T12:08:34.730Z,9.40
2023-05-06T12:11:05.873Z,8.80
2023-05-06T12:13:37.095Z,9.50
2023-05-06T12:16:08.641Z,8.77
2023-05-06T12:18:40.864Z,8.18
2023-05-06T12:21:10.344Z,8.57
2023-05-06T12:23:39.894Z,8.38
2023-05-06T12:26:10.092Z,8.25
2023-05-06T12:28:42.720Z,8.02
2023-05-06T12:33:56.102Z,8.25
2023-05-06T12:36:26.631Z,8.07
2023-05-06T12:38:57.340Z,8.18
2023-05-06T12:41:28.145Z,7.43
2023-05-06T12:43:57.603Z,7.72
2023-05-06T12:46:27.172Z,7.43
2023-05-06T12:49:06.155Z,6.85
2023-05-06T12:51:35.573Z,7.18
2023-05-06T12:54:05.008Z,7.28
2023-05-06T12:56:34.444Z,7.55
2023-05-06T12:59:04.999Z,7.40
2023-05-06T13:01:35.013Z,7.20
2023-05-06T13:04:07.949Z,7.45
2023-05-06T13:09:07.471Z,6.80
2023-05-06T13:11:36.902Z,6.05
2023-05-06T13:14:06.290Z,6.38
2023-05-06T13:16:36.252Z,5.85
2023-05-06T13:19:12.827Z,5.97
2023-05-06T13:21:51.078Z,6.07
2023-05-06T13:24:21.498Z,6.10
2023-05-06T13:26:50.980Z,5.50
2023-05-06T13:29:20.420Z,5.47
2023-05-06T13:31:49.879Z,5.40
2023-05-06T13:34:21.949Z,5.85
2023-05-06T13:36:52.112Z,4.95
2023-05-06T13:39:21.649Z,4.85
2023-05-06T13:41:52.171Z,4.70
2023-05-06T13:44:22.442Z,4.15
2023-05-06T13:46:52.621Z,4.30
2023-05-06T13:49:24.837Z,4.55
2023-05-06T13:51:54.350Z,4.57
2023-05-06T13:54:23.783Z,3.95
2023-05-06T13:56:53.244Z,3.95
2023-05-06T13:59:22.685Z,3.08
2023-05-06T14:01:54.197Z,2.83
2023-05-06T14:04:26.313Z,3.38
2023-05-06T14:06:56.143Z,3.20
2023-05-06T14:09:25.628Z,3.33
2023-05-06T14:11:55.127Z,2.63
2023-05-06T14:14:24.573Z,2.88
2023-05-06T14:16:55.792Z,3.40
2023-05-06T14:19:27.916Z,2.90
2023-05-06T14:21:57.394Z,3.28
2023-05-06T14:24:26.850Z,2.60
2023-05-06T14:26:56.692Z,2.60
2023-05-06T14:29:26.273Z,3.05
2023-05-06T14:31:56.045Z,2.70
2023-05-06T14:34:28.252Z,3.25
2023-05-06T14:36:57.735Z,2.83
2023-05-06T14:39:27.199Z,2.80
2023-05-06T14:41:56.739Z,2.72
2023-05-06T14:44:26.215Z,3.45
2023-05-06T14:46:55.942Z,3.10
2023-05-06T14:49:28.073Z,2.72
2023-05-06T14:51:57.691Z,2.60
2023-05-06T14:54:29.403Z,2.83
2023-05-06T14:57:01.403Z,2.85
2023-05-06T14:59:31.143Z,2.33
2023-05-06T15:02:00.609Z,2.80
2023-05-06T15:04:32.994Z,2.80
2023-05-06T15:07:02.906Z,2.55
2023-05-06T15:09:32.421Z,2.50
2023-05-06T15:12:02.009Z,2.92
2023-05-06T15:14:31.496Z,2.80
2023-05-06T15:17:01.098Z,2.30
2023-05-06T15:19:33.980Z,2.35
2023-05-06T15:22:03.623Z,2.80
2023-05-06T15:24:33.420Z,2.60
2023-05-06T15:27:02.909Z,2.60
2023-05-06T15:29:32.646Z,2.60
2023-05-06T15:32:02.241Z,2.35
2023-05-06T15:34:34.347Z,2.50
2023-05-06T15:37:04.348Z,2.90
2023-05-06T15:39:38.456Z,3.10
2023-05-06T15:42:08.242Z,2.42
2023-05-06T15:44:37.859Z,2.60
2023-05-06T15:47:07.617Z,2.60
2023-05-06T15:52:12.462Z,2.75
2023-05-06T15:54:41.899Z,3.15
2023-05-06T15:57:11.785Z,2.83
2023-05-06T15:59:41.384Z,3.00
2023-05-06T16:04:46.118Z,2.70
2023-05-06T16:07:16.817Z,2.50
2023-05-06T16:09:46.343Z,3.10
2023-05-06T16:12:15.814Z,2.53
2023-05-06T16:14:45.331Z,2.80
2023-05-06T16:17:15.819Z,2.70
2023-05-06T16:19:47.888Z,2.60
2023-05-06T16:22:17.392Z,2.85
2023-05-06T16:24:46.863Z,2.80
2023-05-06T16:27:16.582Z,2.80
2023-05-06T16:29:46.043Z,2.40
2023-05-06T16:32:15.584Z,2.80
2023-05-06T16:34:47.630Z,2.47
2023-05-06T16:37:18.097Z,2.38
2023-05-06T16:39:47.636Z,2.50
2023-05-06T16:42:17.154Z,2.50
2023-05-06T16:44:46.630Z,2.40
2023-05-06T16:47:16.199Z,2.20
2023-05-06T16:49:48.344Z,2.45
2023-05-06T16:52:17.894Z,2.40
2023-05-06T16:54:47.818Z,2.20
2023-05-06T16:57:17.301Z,2.47
2023-05-06T16:59:46.805Z,3.00
2023-05-06T17:02:16.445Z,2.08
2023-05-06T17:04:48.482Z,2.35
2023-05-06T17:07:17.998Z,2.95
2023-05-06T17:09:47.574Z,5.38
2023-05-06T17:12:17.127Z,6.97
2023-05-06T17:14:46.666Z,7.28
2023-05-06T17:17:16.234Z,8.50
2023-05-06T17:19:48.277Z,8.75
2023-05-06T17:22:17.712Z,7.03
2023-05-06T17:24:47.199Z,7.82
2023-05-06T17:27:16.618Z,7.70
2023-05-06T17:29:46.252Z,7.30
2023-05-06T17:32:15.959Z,8.27
2023-05-06T17:34:48.383Z,8.60
2023-05-06T17:37:17.856Z,8.57
2023-05-06T17:39:47.373Z,9.35
2023-05-06T17:42:17.014Z,9.30
2023-05-06T17:44:46.482Z,8.98
2023-05-06T17:47:17.556Z,10.32
2023-05-06T17:49:49.582Z,9.82
2023-05-06T17:52:19.691Z,9.20
2023-05-06T17:55:05.785Z,9.75
2023-05-06T17:57:40.335Z,10.23
2023-05-06T18:00:11.644Z,9.85
2023-05-06T18:02:45.132Z,11.00
2023-05-06T18:05:17.323Z,8.35
2023-05-06T18:07:46.845Z,9.25
2023-05-06T18:10:16.438Z,9.43
2023-05-06T18:12:47.095Z,9.25
2023-05-06T18:15:17.024Z,8.32
2023-05-06T18:17:46.540Z,9.43
2023-05-06T18:20:18.863Z,8.57
2023-05-06T18:22:48.354Z,7.93
2023-05-06T18:25:17.845Z,9.00
2023-05-06T18:27:48.201Z,8.25
2023-05-06T18:30:18.404Z,7.70
2023-05-06T18:32:50.716Z,7.85
2023-05-06T18:35:23.561Z,8.18
2023-05-06T18:37:53.012Z,7.72
2023-05-06T18:40:22.732Z,7.50
2023-05-06T18:42:53.260Z,8.40
2023-05-06T18:45:23.082Z,8.20
2023-05-06T18:47:52.592Z,8.55
2023-05-06T18:50:24.899Z,7.53
2023-05-06T18:52:54.346Z,8.60
2023-05-06T18:55:24.233Z,8.45
2023-05-06T18:57:53.719Z,8.32
2023-05-06T19:00:24.538Z,7.90
2023-05-06T19:02:54.871Z,8.43
2023-05-06T19:05:27.153Z,8.55
2023-05-06T19:07:56.607Z,8.65
2023-05-06T19:10:26.452Z,8.90
2023-05-06T19:12:55.932Z,9.48
2023-05-06T19:15:25.417Z,9.18
2023-05-06T19:17:55.164Z,9.15
2023-05-06T19:20:27.236Z,9.05
2023-05-06T19:22:56.807Z,10.13
2023-05-06T19:25:27.174Z,9.13
2023-05-06T19:27:56.652Z,9.95
2023-05-06T19:30:26.160Z,9.05
2023-05-06T19:32:57.469Z,9.07
2023-05-06T19:35:29.785Z,8.82
2023-05-06T19:37:59.493Z,8.82
2023-05-06T19:40:29.140Z,10.05
2023-05-06T19:43:03.814Z,9.82
2023-05-06T19:45:33.734Z,8.75
2023-05-06T19:48:04.268Z,9.90
2023-05-06T19:50:36.766Z,10.68
2023-05-06T19:53:06.365Z,11.68
2023-05-06T19:55:35.977Z,11.10
2023-05-06T19:58:05.502Z,12.18
2023-05-06T20:00:35.202Z,11.63
2023-05-06T20:03:04.752Z,12.38
2023-05-06T20:05:36.814Z,12.68
2023-05-06T20:08:10.943Z,12.25
2023-05-06T20:10:41.085Z,13.88
2023-05-06T20:13:12.040Z,12.30
2023-05-06T20:15:41.662Z,12.80
2023-05-06T20:18:11.209Z,12.23
2023-05-06T20:20:44.215Z,12.35
2023-05-06T20:23:13.704Z,12.02
2023-05-06T20:25:43.208Z,13.15
2023-05-06T20:28:12.777Z,13.88
2023-05-06T20:30:42.330Z,13.60
2023-05-06T20:33:11.844Z,12.60
2023-05-06T20:35:43.996Z,13.10
2023-05-06T20:38:17.013Z,12.98
2023-05-06T20:40:46.526Z,12.73
2023-05-06T20:43:16.227Z,12.23
2023-05-06T20:45:45.789Z,12.82
2023-05-06T20:48:15.428Z,12.15
2023-05-06T20:50:47.611Z,12.15
2023-05-06T20:53:17.492Z,11.38
2023-05-06T20:55:46.991Z,11.30
2023-05-06T20:58:16.458Z,12.60
2023-05-06T21:00:45.960Z,11.37
2023-05-06T21:03:15.621Z,10.85
2023-05-06T21:05:47.817Z,10.67
2023-05-06T21:08:18.227Z,10.55
2023-05-06T21:10:47.779Z,10.83
2023-05-06T21:13:17.387Z,10.37
2023-05-06T21:15:46.907Z,11.30
2023-05-06T21:18:16.863Z,10.27
2023-05-06T21:20:49.126Z,10.13
2023-05-06T21:23:19.132Z,9.90
2023-05-06T21:25:48.826Z,10.00
2023-05-06T21:28:18.396Z,10.77
2023-05-06T21:30:47.893Z,9.80
2023-05-06T21:33:17.483Z,10.03
2023-05-06T21:35:49.556Z,10.75
2023-05-06T21:38:19.028Z,10.40
2023-05-06T21:40:49.139Z,9.87
2023-05-06T21:43:18.608Z,9.73
2023-05-06T21:45:48.188Z,8.97
2023-05-06T21:48:17.664Z,9.50
2023-05-06T21:50:49.692Z,10.10
2023-05-06T21:53:19.197Z,10.07
2023-05-06T21:55:48.642Z,9.63
2023-05-06T21:58:18.654Z,10.00
2023-05-06T22:00:48.459Z,10.63
2023-05-06T22:03:18.014Z,10.60
2023-05-06T22:05:50.151Z,10.10
2023-05-06T22:08:19.683Z,9.82
2023-05-06T22:10:49.255Z,9.63
2023-05-06T22:13:18.916Z,10.23
2023-05-06T22:15:48.478Z,9.37
2023-05-06T22:18:18.090Z,9.37
2023-05-06T22:20:52.545Z,8.63
2023-05-06T22:23:23.943Z,9.00
2023-05-06T22:25:54.413Z,8.90
2023-05-06T22:28:23.928Z,8.50
2023-05-06T22:30:53.374Z,8.83
2023-05-06T22:33:22.892Z,8.63
2023-05-06T22:35:55.588Z,8.87
2023-05-06T22:40:54.645Z,8.87
2023-05-06T22:43:24.149Z,7.90
2023-05-06T22:45:53.712Z,9.33
2023-05-06T22:48:23.938Z,8.70
2023-05-06T22:50:56.505Z,8.87
2023-05-06T22:53:26.205Z,9.57
2023-05-06T22:55:55.713Z,9.33
2023-05-06T22:58:25.214Z,9.70
2023-05-06T23:00:54.725Z,9.70
2023-05-06T23:03:25.144Z,9.80
2023-05-06T23:05:57.178Z,11.03
2023-05-06T23:08:26.675Z,10.35
2023-05-06T23:10:56.224Z,10.90
2023-05-06T23:13:26.803Z,10.20
2023-05-06T23:15:56.486Z,11.50
2023-05-06T23:18:25.917Z,11.30
2023-05-06T23:20:57.934Z,11.47
2023-05-06T23:23:27.400Z,11.80
2023-05-06T23:25:56.851Z,11.67
2023-05-06T23:28:26.541Z,12.73
2023-05-06T23:30:56.113Z,12.23
2023-05-06T23:33:25.641Z,12.57
2023-05-06T23:35:55.091Z,12.67
2023-05-06T23:38:27.234Z,12.97
2023-05-06T23:40:57.121Z,12.40
2023-05-06T23:43:26.647Z,12.93
2023-05-06T23:45:56.130Z,13.27
2023-05-06T23:48:25.736Z,13.07
2023-05-06T23:50:55.186Z,13.07
2023-05-06T23:53:27.252Z,12.70
2023-05-06T23:55:56.866Z,13.20
2023-05-06T23:58:26.375Z,14.10
